Terminal Aerodrome Forecast
Issued by NWS

Home | Current Version | Previous Version | Graphics & Text | Print | Product List | Glossary On
Versions: 1 2 3 4 5 6 7 8 9 10 11 12 13 14 15 16 17 18 19 20 21 22 23 24 25 26 27 28 29 30
000
FTUS43 KLOT 272320
TAFDPA
TAF
KDPA 272320Z 2800/2824 22005KT P6SM BKN250
     FM280900 00000KT 3SM BR BCFG SCT003
      TEMPO 2810/2814 3/4SM BR BCFG BKN003
     FM281500 07005KT P6SM SCT025 BKN250=

USA.gov is the U.S. government's official web portal to all federal, state and local government web resources and services.